Pagina principală
METAR-TAF:

METAR-TAF

Aeroporturi :

Trelew, Argentina

Latitudine: 43-12S, longitudine: 065-16W, elevație: 39 m

METAR: lipsă

Ora: 14:16 (17:16 UTC)

Prognoză

Raportul a fost făcut în urmă cu 6 ore și 16 de minute, la 11:00 UTC
Prognoză valabilă de la 22 ora 12 UTC la 23 ora 12 UTC
Vânt 10 kt de la Vest/Nord-vest
Vizibilitate de 10 km sau mai mult
nu există nori sub 1.500 m și nici cumulonimbus
Devenind
de la 22 ora 13 UTC la 22 ora 15 UTC
Vânt 23 kt de la Vest/Sud-vest
Temporar
de la 22 ora 14 UTC la 22 ora 21 UTC
Vânt 30 kt de la Vest
Devenind
de la 23 ora 00 UTC la 23 ora 02 UTC
Vânt 12 kt de la Vest

TAF: SAVT 221100Z 2212/2312 30010KT CAVOK TX28/2219Z TN14/2306Z BECMG 2213/2215 25023KT TEMPO 2214/2221 26030KT BECMG 2300/2302 27012KT

Observații și prognoze meteo pentru peste 4.000 de aeroporturi (rapoarte METAR și TAF).

Stațiile disponibile sunt reprezentate pe hartă prin puncte galbene și roșii.

Țineți indicatorul mouse-ului pe punctul dorit pentru a vedea denumirea stației.

Apoi, faceți clic pentru a vedea observațiile și prognozele meteorologice.

Pentru a schimba harta: Pentru mărire, faceți clic pe butoanele verzi cu cruce neagră; pentru micșorare, pe butonul verde cu o liniuță; pentru hărți învecinate, pe săgețile verzi.


METAR-TAF: